sensor_id;sensor_type;location;lat;lon;timestamp;P1;durP1;ratioP1;P2;durP2;ratioP2
62679;SDS011;48746;55.578;37.902;2022-10-29T00:03:55;22.10;;;10.90;;
62679;SDS011;48746;55.578;37.902;2022-10-29T00:06:21;22.75;;;10.73;;
62679;SDS011;48746;55.578;37.902;2022-10-29T00:08:47;22.70;;;10.82;;
62679;SDS011;48746;55.578;37.902;2022-10-29T00:11:17;20.88;;;10.70;;
62679;SDS011;48746;55.578;37.902;2022-10-29T00:13:45;26.02;;;11.30;;
62679;SDS011;48746;55.578;37.902;2022-10-29T00:16:16;32.28;;;11.32;;
62679;SDS011;48746;55.578;37.902;2022-10-29T00:18:43;26.48;;;10.88;;
62679;SDS011;48746;55.578;37.902;2022-10-29T00:21:11;23.05;;;11.07;;
62679;SDS011;48746;55.578;37.902;2022-10-29T00:23:39;21.95;;;10.13;;
62679;SDS011;48746;55.578;37.902;2022-10-29T00:26:05;24.17;;;10.82;;
62679;SDS011;48746;55.578;37.902;2022-10-29T00:28:31;21.20;;;11.05;;
62679;SDS011;48746;55.578;37.902;2022-10-29T00:34:04;25.88;;;10.75;;
62679;SDS011;48746;55.578;37.902;2022-10-29T00:36:30;24.35;;;11.80;;
62679;SDS011;48746;55.578;37.902;2022-10-29T00:38:58;28.42;;;10.88;;
62679;SDS011;48746;55.578;37.902;2022-10-29T00:41:27;27.30;;;11.70;;
62679;SDS011;48746;55.578;37.902;2022-10-29T00:46:39;26.75;;;12.30;;
62679;SDS011;48746;55.578;37.902;2022-10-29T00:49:06;31.33;;;12.35;;
62679;SDS011;48746;55.578;37.902;2022-10-29T00:54:40;27.58;;;11.73;;
62679;SDS011;48746;55.578;37.902;2022-10-29T00:57:19;26.15;;;12.75;;
62679;SDS011;48746;55.578;37.902;2022-10-29T00:59:51;26.80;;;12.85;;
62679;SDS011;48746;55.578;37.902;2022-10-29T01:02:18;25.63;;;12.07;;
62679;SDS011;48746;55.578;37.902;2022-10-29T01:04:45;29.52;;;13.02;;
62679;SDS011;48746;55.578;37.902;2022-10-29T01:07:12;28.42;;;12.75;;
62679;SDS011;48746;55.578;37.902;2022-10-29T01:09:41;20.48;;;11.82;;
62679;SDS011;48746;55.578;37.902;2022-10-29T01:12:14;25.27;;;11.93;;
62679;SDS011;48746;55.578;37.902;2022-10-29T01:28:30;28.92;;;13.48;;
62679;SDS011;48746;55.578;37.902;2022-10-29T01:36:56;48.03;;;20.60;;
62679;SDS011;48746;55.578;37.902;2022-10-29T01:42:14;48.10;;;19.75;;
62679;SDS011;48746;55.578;37.902;2022-10-29T01:45:33;46.72;;;20.52;;
62679;SDS011;48746;55.578;37.902;2022-10-29T01:47:50;42.42;;;19.23;;
62679;SDS011;48746;55.578;37.902;2022-10-29T01:53:26;36.25;;;18.25;;
62679;SDS011;48746;55.578;37.902;2022-10-29T01:55:53;38.47;;;17.92;;
62679;SDS011;48746;55.578;37.902;2022-10-29T01:58:19;42.95;;;19.50;;
62679;SDS011;48746;55.578;37.902;2022-10-29T02:04:00;42.55;;;20.63;;
62679;SDS011;48746;55.578;37.902;2022-10-29T02:12:33;48.13;;;24.60;;
62679;SDS011;48746;55.578;37.902;2022-10-29T02:15:11;44.45;;;22.05;;
62679;SDS011;48746;55.578;37.902;2022-10-29T02:18:00;36.75;;;20.23;;
62679;SDS011;48746;55.578;37.902;2022-10-29T02:20:27;39.22;;;19.88;;
62679;SDS011;48746;55.578;37.902;2022-10-29T02:22:53;36.83;;;16.30;;
62679;SDS011;48746;55.578;37.902;2022-10-29T02:25:20;32.63;;;14.23;;
62679;SDS011;48746;55.578;37.902;2022-10-29T02:27:47;29.40;;;13.00;;
62679;SDS011;48746;55.578;37.902;2022-10-29T02:30:16;21.45;;;12.80;;
62679;SDS011;48746;55.578;37.902;2022-10-29T02:32:42;18.10;;;10.00;;
62679;SDS011;48746;55.578;37.902;2022-10-29T02:35:08;15.90;;;9.15;;
62679;SDS011;48746;55.578;37.902;2022-10-29T02:37:35;16.05;;;9.02;;
62679;SDS011;48746;55.578;37.902;2022-10-29T02:40:04;14.20;;;8.68;;
62679;SDS011;48746;55.578;37.902;2022-10-29T02:42:31;15.93;;;8.80;;
62679;SDS011;48746;55.578;37.902;2022-10-29T02:44:57;13.25;;;8.23;;
62679;SDS011;48746;55.578;37.902;2022-10-29T02:47:23;16.85;;;9.20;;
62679;SDS011;48746;55.578;37.902;2022-10-29T02:49:52;19.38;;;11.23;;
62679;SDS011;48746;55.578;37.902;2022-10-29T02:52:18;22.77;;;11.85;;
62679;SDS011;48746;55.578;37.902;2022-10-29T02:54:45;29.23;;;12.48;;
62679;SDS011;48746;55.578;37.902;2022-10-29T02:57:11;25.02;;;11.55;;
62679;SDS011;48746;55.578;37.902;2022-10-29T02:59:40;19.50;;;10.13;;
62679;SDS011;48746;55.578;37.902;2022-10-29T03:02:06;20.42;;;10.05;;
62679;SDS011;48746;55.578;37.902;2022-10-29T03:04:33;14.65;;;9.15;;
62679;SDS011;48746;55.578;37.902;2022-10-29T03:07:00;20.00;;;9.52;;
62679;SDS011;48746;55.578;37.902;2022-10-29T03:09:30;15.25;;;9.07;;
62679;SDS011;48746;55.578;37.902;2022-10-29T03:11:56;13.50;;;8.23;;
62679;SDS011;48746;55.578;37.902;2022-10-29T03:14:22;13.45;;;8.18;;
62679;SDS011;48746;55.578;37.902;2022-10-29T03:16:48;13.85;;;9.20;;
62679;SDS011;48746;55.578;37.902;2022-10-29T03:19:14;13.25;;;7.47;;
62679;SDS011;48746;55.578;37.902;2022-10-29T03:21:40;14.05;;;8.05;;
62679;SDS011;48746;55.578;37.902;2022-10-29T03:24:06;16.17;;;8.43;;
62679;SDS011;48746;55.578;37.902;2022-10-29T03:26:33;13.20;;;8.20;;
62679;SDS011;48746;55.578;37.902;2022-10-29T03:28:59;16.35;;;8.55;;
62679;SDS011;48746;55.578;37.902;2022-10-29T03:31:25;14.80;;;8.02;;
62679;SDS011;48746;55.578;37.902;2022-10-29T03:33:51;14.55;;;8.65;;
62679;SDS011;48746;55.578;37.902;2022-10-29T03:36:17;16.38;;;8.32;;
62679;SDS011;48746;55.578;37.902;2022-10-29T03:38:43;13.52;;;8.18;;
62679;SDS011;48746;55.578;37.902;2022-10-29T03:41:09;11.07;;;7.28;;
62679;SDS011;48746;55.578;37.902;2022-10-29T03:43:36;13.45;;;7.30;;
62679;SDS011;48746;55.578;37.902;2022-10-29T03:46:03;12.80;;;7.03;;
62679;SDS011;48746;55.578;37.902;2022-10-29T03:48:29;14.02;;;7.50;;
62679;SDS011;48746;55.578;37.902;2022-10-29T03:54:02;13.30;;;7.22;;
62679;SDS011;48746;55.578;37.902;2022-10-29T03:56:28;11.63;;;7.75;;
62679;SDS011;48746;55.578;37.902;2022-10-29T03:58:54;11.60;;;6.57;;
62679;SDS011;48746;55.578;37.902;2022-10-29T04:01:20;12.60;;;6.40;;
62679;SDS011;48746;55.578;37.902;2022-10-29T04:03:46;14.40;;;7.40;;
62679;SDS011;48746;55.578;37.902;2022-10-29T04:06:13;11.82;;;7.00;;
62679;SDS011;48746;55.578;37.902;2022-10-29T04:08:42;11.30;;;7.00;;
62679;SDS011;48746;55.578;37.902;2022-10-29T04:11:11;10.30;;;6.75;;
62679;SDS011;48746;55.578;37.902;2022-10-29T04:13:38;16.38;;;8.00;;
62679;SDS011;48746;55.578;37.902;2022-10-29T04:16:05;12.63;;;7.38;;
62679;SDS011;48746;55.578;37.902;2022-10-29T04:18:31;9.57;;;6.72;;
62679;SDS011;48746;55.578;37.902;2022-10-29T04:20:58;10.45;;;6.53;;
62679;SDS011;48746;55.578;37.902;2022-10-29T04:23:26;10.50;;;6.72;;
62679;SDS011;48746;55.578;37.902;2022-10-29T04:25:56;11.50;;;6.70;;
62679;SDS011;48746;55.578;37.902;2022-10-29T04:28:23;11.40;;;7.15;;
62679;SDS011;48746;55.578;37.902;2022-10-29T04:33:56;7.15;;;5.45;;
62679;SDS011;48746;55.578;37.902;2022-10-29T04:36:22;11.70;;;6.40;;
62679;SDS011;48746;55.578;37.902;2022-10-29T04:38:49;9.00;;;6.00;;
62679;SDS011;48746;55.578;37.902;2022-10-29T04:41:15;9.65;;;6.10;;
62679;SDS011;48746;55.578;37.902;2022-10-29T04:43:41;12.95;;;6.97;;
62679;SDS011;48746;55.578;37.902;2022-10-29T04:46:08;13.10;;;7.20;;
62679;SDS011;48746;55.578;37.902;2022-10-29T04:48:35;22.50;;;11.18;;
62679;SDS011;48746;55.578;37.902;2022-10-29T04:54:07;39.15;;;23.33;;
62679;SDS011;48746;55.578;37.902;2022-10-29T04:56:33;58.15;;;30.83;;
62679;SDS011;48746;55.578;37.902;2022-10-29T04:58:59;49.85;;;28.90;;
62679;SDS011;48746;55.578;37.902;2022-10-29T05:01:25;47.42;;;23.90;;
62679;SDS011;48746;55.578;37.902;2022-10-29T05:03:52;37.95;;;19.10;;
62679;SDS011;48746;55.578;37.902;2022-10-29T05:06:18;36.05;;;18.77;;
62679;SDS011;48746;55.578;37.902;2022-10-29T05:08:45;32.70;;;17.88;;
62679;SDS011;48746;55.578;37.902;2022-10-29T05:11:11;37.88;;;16.85;;
62679;SDS011;48746;55.578;37.902;2022-10-29T05:13:38;33.10;;;17.52;;
62679;SDS011;48746;55.578;37.902;2022-10-29T05:16:04;26.23;;;13.40;;
62679;SDS011;48746;55.578;37.902;2022-10-29T05:18:31;24.85;;;11.65;;
62679;SDS011;48746;55.578;37.902;2022-10-29T05:20:57;25.17;;;12.05;;
62679;SDS011;48746;55.578;37.902;2022-10-29T05:23:23;18.80;;;9.80;;
62679;SDS011;48746;55.578;37.902;2022-10-29T05:25:49;19.08;;;9.30;;
62679;SDS011;48746;55.578;37.902;2022-10-29T05:28:18;18.60;;;9.32;;
62679;SDS011;48746;55.578;37.902;2022-10-29T05:33:52;19.92;;;10.32;;
62679;SDS011;48746;55.578;37.902;2022-10-29T05:36:18;28.05;;;15.75;;
62679;SDS011;48746;55.578;37.902;2022-10-29T05:38:44;24.70;;;12.25;;
62679;SDS011;48746;55.578;37.902;2022-10-29T05:41:10;33.78;;;14.60;;
62679;SDS011;48746;55.578;37.902;2022-10-29T05:43:38;31.55;;;15.13;;
62679;SDS011;48746;55.578;37.902;2022-10-29T05:46:04;28.08;;;14.13;;
62679;SDS011;48746;55.578;37.902;2022-10-29T05:48:30;25.88;;;13.80;;
62679;SDS011;48746;55.578;37.902;2022-10-29T05:50:59;25.05;;;13.05;;
62679;SDS011;48746;55.578;37.902;2022-10-29T05:53:25;22.55;;;11.88;;
62679;SDS011;48746;55.578;37.902;2022-10-29T05:55:52;29.52;;;13.23;;
62679;SDS011;48746;55.578;37.902;2022-10-29T05:58:18;24.80;;;12.20;;
62679;SDS011;48746;55.578;37.902;2022-10-29T06:00:47;19.80;;;11.45;;
62679;SDS011;48746;55.578;37.902;2022-10-29T06:03:18;25.65;;;12.02;;
62679;SDS011;48746;55.578;37.902;2022-10-29T06:05:46;23.60;;;12.35;;
62679;SDS011;48746;55.578;37.902;2022-10-29T06:08:13;22.38;;;12.27;;
62679;SDS011;48746;55.578;37.902;2022-10-29T06:10:41;31.25;;;13.90;;
62679;SDS011;48746;55.578;37.902;2022-10-29T06:13:11;28.55;;;12.15;;
62679;SDS011;48746;55.578;37.902;2022-10-29T06:18:04;21.83;;;10.38;;
62679;SDS011;48746;55.578;37.902;2022-10-29T06:20:31;22.55;;;12.40;;
62679;SDS011;48746;55.578;37.902;2022-10-29T06:22:57;22.10;;;11.82;;
62679;SDS011;48746;55.578;37.902;2022-10-29T06:25:24;22.83;;;11.55;;
62679;SDS011;48746;55.578;37.902;2022-10-29T06:30:49;28.15;;;14.75;;
62679;SDS011;48746;55.578;37.902;2022-10-29T06:33:18;24.35;;;12.25;;
62679;SDS011;48746;55.578;37.902;2022-10-29T06:35:45;26.92;;;13.35;;
62679;SDS011;48746;55.578;37.902;2022-10-29T06:38:11;22.23;;;11.75;;
62679;SDS011;48746;55.578;37.902;2022-10-29T06:40:37;23.80;;;10.50;;
62679;SDS011;48746;55.578;37.902;2022-10-29T06:43:04;15.40;;;8.68;;
62679;SDS011;48746;55.578;37.902;2022-10-29T06:45:32;24.48;;;11.88;;
62679;SDS011;48746;55.578;37.902;2022-10-29T06:47:59;12.32;;;7.45;;
62679;SDS011;48746;55.578;37.902;2022-10-29T06:50:28;13.60;;;8.20;;
62679;SDS011;48746;55.578;37.902;2022-10-29T06:52:55;14.38;;;7.53;;
62679;SDS011;48746;55.578;37.902;2022-10-29T06:55:22;16.02;;;8.07;;
62679;SDS011;48746;55.578;37.902;2022-10-29T06:58:02;16.65;;;8.40;;
62679;SDS011;48746;55.578;37.902;2022-10-29T07:00:33;17.52;;;9.48;;
62679;SDS011;48746;55.578;37.902;2022-10-29T07:02:59;18.60;;;10.45;;
62679;SDS011;48746;55.578;37.902;2022-10-29T07:05:25;19.55;;;9.23;;
62679;SDS011;48746;55.578;37.902;2022-10-29T07:07:58;16.10;;;8.95;;
62679;SDS011;48746;55.578;37.902;2022-10-29T07:10:29;18.65;;;8.20;;
62679;SDS011;48746;55.578;37.902;2022-10-29T07:12:56;17.63;;;8.55;;
62679;SDS011;48746;55.578;37.902;2022-10-29T07:15:23;17.75;;;9.23;;
62679;SDS011;48746;55.578;37.902;2022-10-29T07:17:59;19.08;;;8.52;;
62679;SDS011;48746;55.578;37.902;2022-10-29T07:20:28;14.30;;;7.70;;
62679;SDS011;48746;55.578;37.902;2022-10-29T07:22:56;11.98;;;7.68;;
62679;SDS011;48746;55.578;37.902;2022-10-29T07:25:22;14.27;;;7.22;;
62679;SDS011;48746;55.578;37.902;2022-10-29T07:27:48;11.60;;;6.90;;
62679;SDS011;48746;55.578;37.902;2022-10-29T07:33:21;11.30;;;6.68;;
62679;SDS011;48746;55.578;37.902;2022-10-29T07:35:47;12.05;;;7.85;;
62679;SDS011;48746;55.578;37.902;2022-10-29T07:38:14;10.25;;;6.35;;
62679;SDS011;48746;55.578;37.902;2022-10-29T07:43:46;13.30;;;6.97;;
62679;SDS011;48746;55.578;37.902;2022-10-29T07:46:12;18.80;;;8.63;;
62679;SDS011;48746;55.578;37.902;2022-10-29T07:48:38;16.70;;;8.13;;
62679;SDS011;48746;55.578;37.902;2022-10-29T07:54:11;14.50;;;7.80;;
62679;SDS011;48746;55.578;37.902;2022-10-29T07:56:37;12.55;;;7.05;;
62679;SDS011;48746;55.578;37.902;2022-10-29T07:59:03;14.48;;;7.47;;
62679;SDS011;48746;55.578;37.902;2022-10-29T08:01:29;17.75;;;7.50;;
62679;SDS011;48746;55.578;37.902;2022-10-29T08:03:55;14.05;;;7.93;;
62679;SDS011;48746;55.578;37.902;2022-10-29T08:06:22;13.43;;;8.05;;
62679;SDS011;48746;55.578;37.902;2022-10-29T08:08:48;13.98;;;7.45;;
62679;SDS011;48746;55.578;37.902;2022-10-29T08:14:21;12.13;;;6.93;;
62679;SDS011;48746;55.578;37.902;2022-10-29T08:16:47;12.88;;;7.53;;
62679;SDS011;48746;55.578;37.902;2022-10-29T08:19:14;16.27;;;8.65;;
62679;SDS011;48746;55.578;37.902;2022-10-29T08:21:40;14.77;;;8.70;;
62679;SDS011;48746;55.578;37.902;2022-10-29T08:24:06;14.07;;;7.60;;
62679;SDS011;48746;55.578;37.902;2022-10-29T08:26:34;12.45;;;7.15;;
62679;SDS011;48746;55.578;37.902;2022-10-29T08:29:00;13.02;;;6.95;;
62679;SDS011;48746;55.578;37.902;2022-10-29T08:31:26;13.05;;;7.20;;
62679;SDS011;48746;55.578;37.902;2022-10-29T08:33:52;16.42;;;9.30;;
62679;SDS011;48746;55.578;37.902;2022-10-29T08:36:18;13.07;;;6.97;;
62679;SDS011;48746;55.578;37.902;2022-10-29T08:38:48;11.70;;;7.05;;
62679;SDS011;48746;55.578;37.902;2022-10-29T08:46:55;18.00;;;7.72;;
62679;SDS011;48746;55.578;37.902;2022-10-29T08:49:33;17.38;;;8.82;;
62679;SDS011;48746;55.578;37.902;2022-10-29T08:52:17;15.70;;;8.23;;
62679;SDS011;48746;55.578;37.902;2022-10-29T08:54:56;16.65;;;8.27;;
62679;SDS011;48746;55.578;37.902;2022-10-29T08:57:25;16.83;;;8.32;;
62679;SDS011;48746;55.578;37.902;2022-10-29T09:02:31;12.98;;;7.38;;
62679;SDS011;48746;55.578;37.902;2022-10-29T09:04:57;15.23;;;8.38;;
62679;SDS011;48746;55.578;37.902;2022-10-29T09:10:47;15.95;;;8.65;;
62679;SDS011;48746;55.578;37.902;2022-10-29T09:19:29;11.35;;;7.00;;
62679;SDS011;48746;55.578;37.902;2022-10-29T09:22:01;11.45;;;6.47;;
62679;SDS011;48746;55.578;37.902;2022-10-29T09:24:45;13.43;;;7.13;;
62679;SDS011;48746;55.578;37.902;2022-10-29T09:27:28;13.15;;;7.53;;
62679;SDS011;48746;55.578;37.902;2022-10-29T09:30:21;13.95;;;7.75;;
62679;SDS011;48746;55.578;37.902;2022-10-29T09:32:58;12.65;;;6.95;;
62679;SDS011;48746;55.578;37.902;2022-10-29T09:35:36;12.90;;;6.80;;
62679;SDS011;48746;55.578;37.902;2022-10-29T09:38:06;10.90;;;6.65;;
62679;SDS011;48746;55.578;37.902;2022-10-29T09:40:41;18.25;;;9.15;;
62679;SDS011;48746;55.578;37.902;2022-10-29T09:45:53;16.00;;;7.70;;
62679;SDS011;48746;55.578;37.902;2022-10-29T09:48:26;15.55;;;7.88;;
62679;SDS011;48746;55.578;37.902;2022-10-29T09:54:14;16.45;;;8.50;;
62679;SDS011;48746;55.578;37.902;2022-10-29T09:56:42;14.23;;;7.70;;
62679;SDS011;48746;55.578;37.902;2022-10-29T10:02:19;16.08;;;9.05;;
62679;SDS011;48746;55.578;37.902;2022-10-29T10:04:48;17.00;;;9.07;;
62679;SDS011;48746;55.578;37.902;2022-10-29T10:07:16;17.42;;;8.27;;
62679;SDS011;48746;55.578;37.902;2022-10-29T10:12:50;17.10;;;9.35;;
62679;SDS011;48746;55.578;37.902;2022-10-29T10:15:27;15.85;;;9.57;;
62679;SDS011;48746;55.578;37.902;2022-10-29T10:25:46;16.85;;;9.18;;
62679;SDS011;48746;55.578;37.902;2022-10-29T10:28:14;15.05;;;8.80;;
62679;SDS011;48746;55.578;37.902;2022-10-29T10:33:53;14.27;;;8.27;;
62679;SDS011;48746;55.578;37.902;2022-10-29T10:36:20;16.17;;;8.73;;
62679;SDS011;48746;55.578;37.902;2022-10-29T10:38:51;20.95;;;9.32;;
62679;SDS011;48746;55.578;37.902;2022-10-29T10:44:25;16.45;;;9.23;;
62679;SDS011;48746;55.578;37.902;2022-10-29T10:46:53;16.40;;;9.23;;
62679;SDS011;48746;55.578;37.902;2022-10-29T10:49:33;15.80;;;9.02;;
62679;SDS011;48746;55.578;37.902;2022-10-29T10:52:05;15.10;;;9.35;;
62679;SDS011;48746;55.578;37.902;2022-10-29T10:54:41;22.67;;;9.63;;
62679;SDS011;48746;55.578;37.902;2022-10-29T11:05:19;23.17;;;12.02;;
62679;SDS011;48746;55.578;37.902;2022-10-29T11:07:57;20.02;;;10.68;;
62679;SDS011;48746;55.578;37.902;2022-10-29T11:10:33;19.83;;;10.68;;
62679;SDS011;48746;55.578;37.902;2022-10-29T11:13:14;18.95;;;10.60;;
62679;SDS011;48746;55.578;37.902;2022-10-29T11:15:46;17.75;;;10.52;;
62679;SDS011;48746;55.578;37.902;2022-10-29T11:38:15;24.08;;;11.27;;
62679;SDS011;48746;55.578;37.902;2022-10-29T11:43:50;18.67;;;10.38;;
62679;SDS011;48746;55.578;37.902;2022-10-29T11:57:08;22.98;;;11.43;;
62679;SDS011;48746;55.578;37.902;2022-10-29T12:14:20;23.92;;;12.85;;
62679;SDS011;48746;55.578;37.902;2022-10-29T12:25:49;21.67;;;12.00;;
62679;SDS011;48746;55.578;37.902;2022-10-29T12:34:17;23.23;;;12.27;;
62679;SDS011;48746;55.578;37.902;2022-10-29T12:39:49;20.80;;;11.63;;
62679;SDS011;48746;55.578;37.902;2022-10-29T12:42:24;19.90;;;11.00;;
62679;SDS011;48746;55.578;37.902;2022-10-29T12:47:48;22.77;;;11.55;;
62679;SDS011;48746;55.578;37.902;2022-10-29T12:56:01;19.80;;;10.90;;
62679;SDS011;48746;55.578;37.902;2022-10-29T12:58:45;20.27;;;10.43;;
62679;SDS011;48746;55.578;37.902;2022-10-29T13:01:46;21.08;;;10.70;;
62679;SDS011;48746;55.578;37.902;2022-10-29T13:18:39;17.10;;;9.65;;
62679;SDS011;48746;55.578;37.902;2022-10-29T13:21:09;21.75;;;9.35;;
62679;SDS011;48746;55.578;37.902;2022-10-29T13:23:35;20.08;;;9.60;;
62679;SDS011;48746;55.578;37.902;2022-10-29T13:26:05;17.20;;;8.73;;
62679;SDS011;48746;55.578;37.902;2022-10-29T13:44:21;18.50;;;9.85;;
62679;SDS011;48746;55.578;37.902;2022-10-29T13:49:48;21.05;;;10.88;;
62679;SDS011;48746;55.578;37.902;2022-10-29T13:54:46;22.15;;;9.98;;
62679;SDS011;48746;55.578;37.902;2022-10-29T13:57:33;25.17;;;10.65;;
62679;SDS011;48746;55.578;37.902;2022-10-29T14:03:17;21.63;;;10.80;;
62679;SDS011;48746;55.578;37.902;2022-10-29T14:06:19;22.48;;;11.20;;
62679;SDS011;48746;55.578;37.902;2022-10-29T14:08:49;20.60;;;10.60;;
62679;SDS011;48746;55.578;37.902;2022-10-29T14:14:30;22.67;;;11.00;;
62679;SDS011;48746;55.578;37.902;2022-10-29T14:17:09;20.92;;;10.90;;
62679;SDS011;48746;55.578;37.902;2022-10-29T14:19:50;19.20;;;9.93;;
62679;SDS011;48746;55.578;37.902;2022-10-29T14:24:43;14.45;;;9.60;;
62679;SDS011;48746;55.578;37.902;2022-10-29T14:27:12;17.30;;;10.38;;
62679;SDS011;48746;55.578;37.902;2022-10-29T14:29:40;20.35;;;10.10;;
62679;SDS011;48746;55.578;37.902;2022-10-29T14:32:08;19.95;;;10.30;;
62679;SDS011;48746;55.578;37.902;2022-10-29T14:34:40;20.77;;;10.02;;
62679;SDS011;48746;55.578;37.902;2022-10-29T14:37:10;15.77;;;9.10;;
62679;SDS011;48746;55.578;37.902;2022-10-29T14:39:46;20.95;;;8.38;;
62679;SDS011;48746;55.578;37.902;2022-10-29T14:42:20;17.98;;;9.10;;
62679;SDS011;48746;55.578;37.902;2022-10-29T14:44:59;16.83;;;8.95;;
62679;SDS011;48746;55.578;37.902;2022-10-29T14:50:00;18.60;;;7.93;;
62679;SDS011;48746;55.578;37.902;2022-10-29T14:52:30;14.20;;;9.13;;
62679;SDS011;48746;55.578;37.902;2022-10-29T14:55:02;16.40;;;7.93;;
62679;SDS011;48746;55.578;37.902;2022-10-29T14:57:32;17.60;;;9.00;;
62679;SDS011;48746;55.578;37.902;2022-10-29T15:00:04;13.00;;;8.45;;
62679;SDS011;48746;55.578;37.902;2022-10-29T15:02:35;16.25;;;7.97;;
62679;SDS011;48746;55.578;37.902;2022-10-29T15:07:30;21.60;;;7.63;;
62679;SDS011;48746;55.578;37.902;2022-10-29T15:12:35;15.00;;;8.57;;
62679;SDS011;48746;55.578;37.902;2022-10-29T15:17:47;18.70;;;8.85;;
62679;SDS011;48746;55.578;37.902;2022-10-29T15:20:19;17.60;;;9.38;;
62679;SDS011;48746;55.578;37.902;2022-10-29T15:22:50;13.88;;;9.63;;
62679;SDS011;48746;55.578;37.902;2022-10-29T15:25:21;26.40;;;12.95;;
62679;SDS011;48746;55.578;37.902;2022-10-29T15:27:52;19.33;;;9.40;;
62679;SDS011;48746;55.578;37.902;2022-10-29T15:30:27;17.17;;;9.30;;
62679;SDS011;48746;55.578;37.902;2022-10-29T15:32:57;14.80;;;8.55;;
62679;SDS011;48746;55.578;37.902;2022-10-29T15:35:24;13.77;;;8.65;;
62679;SDS011;48746;55.578;37.902;2022-10-29T15:37:50;18.52;;;8.65;;
62679;SDS011;48746;55.578;37.902;2022-10-29T15:40:17;16.63;;;9.32;;
62679;SDS011;48746;55.578;37.902;2022-10-29T15:42:44;18.00;;;9.73;;
62679;SDS011;48746;55.578;37.902;2022-10-29T15:47:38;16.83;;;8.60;;
62679;SDS011;48746;55.578;37.902;2022-10-29T15:50:17;17.83;;;9.00;;
62679;SDS011;48746;55.578;37.902;2022-10-29T15:52:59;16.10;;;8.88;;
62679;SDS011;48746;55.578;37.902;2022-10-29T15:55:31;15.00;;;8.48;;
62679;SDS011;48746;55.578;37.902;2022-10-29T15:58:01;15.90;;;8.48;;
62679;SDS011;48746;55.578;37.902;2022-10-29T16:00:36;16.67;;;9.07;;
62679;SDS011;48746;55.578;37.902;2022-10-29T16:03:11;14.02;;;9.02;;
62679;SDS011;48746;55.578;37.902;2022-10-29T16:05:39;14.65;;;9.00;;
62679;SDS011;48746;55.578;37.902;2022-10-29T16:08:08;14.35;;;8.55;;
62679;SDS011;48746;55.578;37.902;2022-10-29T16:10:56;17.42;;;9.13;;
62679;SDS011;48746;55.578;37.902;2022-10-29T16:13:24;15.82;;;9.63;;
62679;SDS011;48746;55.578;37.902;2022-10-29T16:15:51;15.75;;;9.25;;
62679;SDS011;48746;55.578;37.902;2022-10-29T16:18:18;15.57;;;8.90;;
62679;SDS011;48746;55.578;37.902;2022-10-29T16:20:44;12.93;;;8.48;;
62679;SDS011;48746;55.578;37.902;2022-10-29T16:23:11;18.88;;;9.55;;
62679;SDS011;48746;55.578;37.902;2022-10-29T16:25:38;14.20;;;8.77;;
62679;SDS011;48746;55.578;37.902;2022-10-29T16:28:05;15.48;;;8.43;;
62679;SDS011;48746;55.578;37.902;2022-10-29T16:30:31;16.17;;;8.30;;
62679;SDS011;48746;55.578;37.902;2022-10-29T16:32:59;17.98;;;8.73;;
62679;SDS011;48746;55.578;37.902;2022-10-29T16:35:27;17.40;;;9.88;;
62679;SDS011;48746;55.578;37.902;2022-10-29T16:37:54;16.75;;;8.68;;
62679;SDS011;48746;55.578;37.902;2022-10-29T16:43:27;14.32;;;8.65;;
62679;SDS011;48746;55.578;37.902;2022-10-29T16:45:53;16.13;;;8.23;;
62679;SDS011;48746;55.578;37.902;2022-10-29T16:48:20;13.10;;;8.55;;
62679;SDS011;48746;55.578;37.902;2022-10-29T16:53:53;20.15;;;12.38;;
62679;SDS011;48746;55.578;37.902;2022-10-29T16:56:19;15.38;;;8.07;;
62679;SDS011;48746;55.578;37.902;2022-10-29T16:58:45;13.05;;;7.68;;
62679;SDS011;48746;55.578;37.902;2022-10-29T17:01:11;12.50;;;8.23;;
62679;SDS011;48746;55.578;37.902;2022-10-29T17:03:37;15.60;;;9.15;;
62679;SDS011;48746;55.578;37.902;2022-10-29T17:06:05;14.35;;;8.13;;
62679;SDS011;48746;55.578;37.902;2022-10-29T17:08:32;13.70;;;8.15;;
62679;SDS011;48746;55.578;37.902;2022-10-29T17:14:05;12.30;;;6.90;;
62679;SDS011;48746;55.578;37.902;2022-10-29T17:16:31;12.80;;;7.78;;
62679;SDS011;48746;55.578;37.902;2022-10-29T17:18:58;11.73;;;7.20;;
62679;SDS011;48746;55.578;37.902;2022-10-29T17:21:24;12.02;;;7.50;;
62679;SDS011;48746;55.578;37.902;2022-10-29T17:23:50;12.82;;;7.40;;
62679;SDS011;48746;55.578;37.902;2022-10-29T17:26:16;10.77;;;7.38;;
62679;SDS011;48746;55.578;37.902;2022-10-29T17:28:43;11.77;;;7.47;;
62679;SDS011;48746;55.578;37.902;2022-10-29T17:31:09;12.25;;;8.15;;
62679;SDS011;48746;55.578;37.902;2022-10-29T17:33:36;13.70;;;7.30;;
62679;SDS011;48746;55.578;37.902;2022-10-29T17:36:03;13.52;;;7.45;;
62679;SDS011;48746;55.578;37.902;2022-10-29T17:38:35;15.50;;;8.10;;
62679;SDS011;48746;55.578;37.902;2022-10-29T17:44:07;11.90;;;6.95;;
62679;SDS011;48746;55.578;37.902;2022-10-29T17:46:34;12.02;;;6.93;;
62679;SDS011;48746;55.578;37.902;2022-10-29T17:49:00;13.05;;;7.05;;
62679;SDS011;48746;55.578;37.902;2022-10-29T17:51:26;11.20;;;6.78;;
62679;SDS011;48746;55.578;37.902;2022-10-29T17:53:53;12.05;;;7.35;;
62679;SDS011;48746;55.578;37.902;2022-10-29T17:56:20;9.63;;;7.18;;
62679;SDS011;48746;55.578;37.902;2022-10-29T17:58:46;11.50;;;6.93;;
62679;SDS011;48746;55.578;37.902;2022-10-29T18:01:12;12.10;;;7.15;;
62679;SDS011;48746;55.578;37.902;2022-10-29T18:03:38;11.52;;;7.63;;
62679;SDS011;48746;55.578;37.902;2022-10-29T18:06:06;14.98;;;7.80;;
62679;SDS011;48746;55.578;37.902;2022-10-29T18:08:34;10.98;;;7.03;;
62679;SDS011;48746;55.578;37.902;2022-10-29T18:14:10;13.52;;;7.35;;
62679;SDS011;48746;55.578;37.902;2022-10-29T18:16:36;11.43;;;7.40;;
62679;SDS011;48746;55.578;37.902;2022-10-29T18:19:02;16.48;;;8.35;;
62679;SDS011;48746;55.578;37.902;2022-10-29T18:21:29;13.90;;;7.85;;
62679;SDS011;48746;55.578;37.902;2022-10-29T18:23:56;12.15;;;7.32;;
62679;SDS011;48746;55.578;37.902;2022-10-29T18:29:01;10.75;;;7.10;;
62679;SDS011;48746;55.578;37.902;2022-10-29T18:31:30;10.73;;;7.07;;
62679;SDS011;48746;55.578;37.902;2022-10-29T18:33:57;12.57;;;7.32;;
62679;SDS011;48746;55.578;37.902;2022-10-29T18:36:24;15.38;;;7.28;;
62679;SDS011;48746;55.578;37.902;2022-10-29T18:38:51;11.68;;;7.10;;
62679;SDS011;48746;55.578;37.902;2022-10-29T18:41:18;12.18;;;7.60;;
62679;SDS011;48746;55.578;37.902;2022-10-29T18:43:45;12.27;;;7.68;;
62679;SDS011;48746;55.578;37.902;2022-10-29T18:46:11;16.73;;;8.15;;
62679;SDS011;48746;55.578;37.902;2022-10-29T18:48:38;12.40;;;7.18;;
62679;SDS011;48746;55.578;37.902;2022-10-29T18:51:07;13.02;;;7.82;;
62679;SDS011;48746;55.578;37.902;2022-10-29T18:53:34;13.82;;;8.15;;
62679;SDS011;48746;55.578;37.902;2022-10-29T18:56:01;14.38;;;8.13;;
62679;SDS011;48746;55.578;37.902;2022-10-29T18:58:28;14.38;;;7.88;;
62679;SDS011;48746;55.578;37.902;2022-10-29T19:01:01;13.93;;;8.20;;
62679;SDS011;48746;55.578;37.902;2022-10-29T19:03:37;14.55;;;8.13;;
62679;SDS011;48746;55.578;37.902;2022-10-29T19:06:08;13.93;;;8.38;;
62679;SDS011;48746;55.578;37.902;2022-10-29T19:08:36;13.20;;;8.13;;